| time (UTC) | temp F | wind direction | speed MPH | gust MPH | rain 1hr in | rain 24hr in | rain mn in | humidity % | barometer mb |
| 20260831225517 | 62 | 145 | 6.0 | 7.0 | 0.07 | 0.20 | 0.07 | 44 | 1077.5 |
| 20260831225017 | 59 | 225 | 5.0 | 9.0 | 0.00 | 0.23 | 0.00 | 87 | 1019.3 |
| 20260831224557 | 62 | 141 | 6.0 | 7.0 | 0.05 | 0.20 | 0.05 | 44 | 1076.8 |
| 20260831224017 | 59 | 248 | 3.0 | 6.0 | 0.01 | 0.23 | 0.00 | 87 | 1019.4 |
| 20260831223517 | 61 | 138 | 6.0 | 7.0 | 0.04 | 0.20 | 0.04 | 43 | 1076.0 |
| 20260831223017 | 59 | 225 | 4.0 | 8.0 | 0.01 | 0.23 | 0.00 | 86 | 1019.3 |
| 20260831222517 | 60 | 134 | 6.0 | 8.0 | 0.03 | 0.20 | 0.03 | 42 | 1075.2 |
| 20260831222017 | 60 | 225 | 4.0 | 8.0 | 0.01 | 0.23 | 0.00 | 86 | 1019.3 |
| 20260831221517 | 59 | 130 | 6.0 | 8.0 | 0.02 | 0.20 | 0.02 | 42 | 1074.5 |
| 20260831221021 | 60 | 203 | 3.0 | 7.0 | 0.01 | 0.23 | 0.00 | 86 | 1019.2 |
| 20260831220517 | 59 | 126 | 6.0 | 8.0 | 0.01 | 0.20 | 0.01 | 41 | 1073.8 |
| 20260831220017 | 60 | 248 | 2.0 | 4.0 | 0.01 | 0.23 | 0.23 | 85 | 1019.0 |
| 20260831215518 | 58 | 122 | 7.0 | 8.0 | 0.00 | 0.20 | 0.20 | 40 | 1073.0 |
| 20260831215036 | 61 | 315 | 2.0 | 4.0 | 0.01 | 0.23 | 0.23 | 84 | 1019.2 |
| 20260831214557 | 57 | 119 | 7.0 | 8.0 | 0.00 | 0.20 | 0.20 | 40 | 1072.3 |
| 20260831214036 | 62 | 293 | 3.0 | 5.0 | 0.00 | 0.22 | 0.22 | 82 | 1019.2 |
| 20260831213517 | 56 | 115 | 7.0 | 8.0 | 0.00 | 0.20 | 0.20 | 39 | 1071.6 |
| 20260831213036 | 62 | 270 | 3.0 | 8.0 | 0.00 | 0.22 | 0.22 | 80 | 1019.0 |
| 20260831212517 | 55 | 111 | 7.0 | 8.0 | 0.00 | 0.20 | 0.20 | 39 | 1070.8 |
| 20260831212016 | 62 | 270 | 3.0 | 8.0 | 0.00 | 0.22 | 0.22 | 79 | 1018.7 |
| 20260831211517 | 54 | 108 | 7.0 | 8.0 | 0.00 | 0.20 | 0.20 | 38 | 1070.1 |
| 20260831211016 | 62 | 225 | 5.0 | 11.0 | 0.00 | 0.22 | 0.22 | 79 | 1018.5 |
| 20260831210517 | 54 | 104 | 7.0 | 9.0 | 0.00 | 0.20 | 0.20 | 37 | 1069.4 |
| 20260831210016 | 62 | 225 | 5.0 | 11.0 | 0.00 | 0.22 | 0.22 | 78 | 1018.6 |
| 20260831205517 | 53 | 101 | 7.0 | 9.0 | 0.00 | 0.20 | 0.20 | 37 | 1068.7 |
| 20260831205016 | 62 | 270 | 2.0 | 6.0 | 0.00 | 0.22 | 0.22 | 76 | 1018.4 |
| 20260831204517 | 52 | 97 | 7.0 | 9.0 | 0.00 | 0.20 | 0.20 | 36 | 1068.0 |
| 20260831204016 | 62 | 248 | 5.0 | 9.0 | 0.00 | 0.22 | 0.22 | 75 | 1018.2 |
| 20260831203517 | 51 | 94 | 7.0 | 9.0 | 0.00 | 0.20 | 0.20 | 36 | 1067.3 |
| 20260831203016 | 63 | 248 | 4.0 | 9.0 | 0.00 | 0.22 | 0.22 | 75 | 1018.3 |
| 20260831202517 | 50 | 90 | 7.0 | 9.0 | 0.00 | 0.20 | 0.20 | 35 | 1066.6 |
| 20260831202016 | 63 | 225 | 6.0 | 12.0 | 0.00 | 0.22 | 0.22 | 74 | 1018.1 |
| 20260831201538 | 49 | 87 | 8.0 | 9.0 | 0.00 | 0.20 | 0.20 | 34 | 1066.0 |
| 20260831201016 | 63 | 225 | 5.0 | 9.0 | 0.00 | 0.22 | 0.22 | 74 | 1017.9 |
| 20260831200517 | 48 | 84 | 8.0 | 9.0 | 0.00 | 0.20 | 0.20 | 34 | 1065.3 |
| 20260831200016 | 63 | 270 | 6.0 | 12.0 | 0.00 | 0.22 | 0.22 | 73 | 1017.5 |
| 20260831195537 | 47 | 80 | 8.0 | 9.0 | 0.00 | 0.20 | 0.20 | 33 | 1064.7 |
| 20260831195016 | 63 | 225 | 7.0 | 13.0 | 0.00 | 0.22 | 0.22 | 72 | 1017.4 |
| 20260831194537 | 47 | 77 | 8.0 | 9.0 | 0.00 | 0.20 | 0.20 | 33 | 1064.0 |
| 20260831194016 | 64 | 225 | 10.0 | 17.0 | 0.00 | 0.22 | 0.22 | 71 | 1017.3 |
| 20260831193517 | 46 | 74 | 8.0 | 10.0 | 0.00 | 0.20 | 0.20 | 32 | 1063.4 |
| 20260831193016 | 64 | 225 | 9.0 | 17.0 | 0.00 | 0.22 | 0.22 | 68 | 1017.0 |
| 20260831192518 | 45 | 71 | 8.0 | 10.0 | 0.00 | 0.20 | 0.20 | 32 | 1062.8 |
| 20260831192016 | 65 | 225 | 7.0 | 12.0 | 0.00 | 0.22 | 0.22 | 65 | 1017.0 |
| 20260831191517 | 44 | 68 | 8.0 | 10.0 | 0.00 | 0.20 | 0.20 | 31 | 1062.2 |
| 20260831191017 | 65 | 225 | 8.0 | 20.0 | 0.00 | 0.22 | 0.22 | 64 | 1017.1 |
| 20260831190517 | 43 | 65 | 8.0 | 10.0 | 0.00 | 0.20 | 0.20 | 31 | 1061.6 |
| 20260831190017 | 66 | 248 | 8.0 | 16.0 | 0.00 | 0.22 | 0.22 | 62 | 1017.1 |
| 20260831185517 | 42 | 62 | 8.0 | 10.0 | 0.00 | 0.20 | 0.20 | 30 | 1061.0 |
| 20260831185017 | 67 | 225 | 11.0 | 19.0 | 0.00 | 0.22 | 0.22 | 61 | 1016.9 |
| 20260831184517 | 42 | 59 | 8.0 | 10.0 | 0.00 | 0.20 | 0.20 | 30 | 1060.4 |
| 20260831184017 | 68 | 248 | 10.0 | 16.0 | 0.00 | 0.22 | 0.22 | 60 | 1016.9 |
| 20260831183517 | 41 | 56 | 8.0 | 10.0 | 0.00 | 0.20 | 0.20 | 29 | 1059.8 |
| 20260831183017 | 68 | 225 | 9.0 | 18.0 | 0.00 | 0.22 | 0.22 | 59 | 1016.4 |
| 20260831182557 | 40 | 53 | 9.0 | 10.0 | 0.00 | 0.20 | 0.20 | 29 | 1059.3 |
| 20260831182017 | 68 | 225 | 7.0 | 15.0 | 0.00 | 0.22 | 0.22 | 59 | 1016.1 |
| 20260831181517 | 39 | 50 | 9.0 | 10.0 | 0.00 | 0.20 | 0.20 | 28 | 1058.7 |
| 20260831181036 | 68 | 225 | 8.0 | 17.0 | 0.00 | 0.22 | 0.22 | 58 | 1015.9 |
| 20260831180518 | 39 | 48 | 9.0 | 10.0 | 0.00 | 0.20 | 0.20 | 28 | 1058.2 |
| 20260831180037 | 69 | 225 | 8.0 | 17.0 | 0.00 | 0.22 | 0.22 | 57 | 1015.8 |
| 20260831175517 | 38 | 45 | 9.0 | 11.0 | 0.00 | 0.20 | 0.20 | 27 | 1057.7 |
| 20260831175018 | 69 | 225 | 9.0 | 14.0 | 0.00 | 0.22 | 0.22 | 57 | 1015.9 |
| 20260831174517 | 37 | 42 | 9.0 | 11.0 | 0.00 | 0.20 | 0.20 | 27 | 1057.2 |
| 20260831174017 | 69 | 270 | 7.0 | 14.0 | 0.00 | 0.22 | 0.22 | 57 | 1016.0 |
| 20260831173517 | 37 | 40 | 9.0 | 11.0 | 0.00 | 0.20 | 0.20 | 27 | 1056.7 |
| 20260831173016 | 69 | 225 | 8.0 | 15.0 | 0.00 | 0.22 | 0.22 | 57 | 1016.0 |
| 20260831172517 | 36 | 37 | 9.0 | 11.0 | 0.00 | 0.20 | 0.20 | 26 | 1056.2 |
| 20260831172016 | 69 | 225 | 6.0 | 12.0 | 0.00 | 0.22 | 0.22 | 57 | 1015.8 |
| 20260831171517 | 35 | 35 | 9.0 | 11.0 | 0.00 | 0.20 | 0.20 | 26 | 1055.7 |
| 20260831171016 | 70 | 225 | 7.0 | 13.0 | 0.00 | 0.22 | 0.22 | 56 | 1015.7 |
| 20260831170517 | 35 | 33 | 9.0 | 11.0 | 0.00 | 0.20 | 0.20 | 25 | 1055.3 |
| 20260831170037 | 70 | 225 | 6.0 | 14.0 | 0.00 | 0.22 | 0.22 | 56 | 1015.7 |
| 20260831165517 | 34 | 31 | 9.0 | 11.0 | 0.00 | 0.20 | 0.20 | 25 | 1054.8 |
| 20260831165016 | 70 | 270 | 7.0 | 11.0 | 0.00 | 0.22 | 0.22 | 57 | 1016.0 |
| 20260831164517 | 34 | 28 | 9.0 | 11.0 | 0.00 | 0.20 | 0.20 | 25 | 1054.4 |
| 20260831164017 | 72 | 248 | 8.0 | 16.0 | 0.00 | 0.22 | 0.22 | 55 | 1016.0 |
| 20260831163517 | 33 | 26 | 9.0 | 11.0 | 0.00 | 0.20 | 0.20 | 24 | 1054.0 |
| 20260831163017 | 72 | 225 | 5.0 | 9.0 | 0.00 | 0.22 | 0.22 | 56 | 1016.0 |
| 20260831162517 | 33 | 24 | 9.0 | 11.0 | 0.00 | 0.20 | 0.20 | 24 | 1053.6 |
| 20260831162017 | 73 | 248 | 5.0 | 9.0 | 0.00 | 0.22 | 0.22 | 56 | 1015.8 |
| 20260831161517 | 32 | 22 | 9.0 | 11.0 | 0.00 | 0.20 | 0.20 | 24 | 1053.2 |
| 20260831161016 | 72 | 203 | 7.0 | 13.0 | 0.00 | 0.22 | 0.22 | 56 | 1015.8 |
| 20260831160517 | 32 | 21 | 9.0 | 11.0 | 0.00 | 0.20 | 0.20 | 23 | 1052.8 |
| 20260831160016 | 72 | 225 | 7.0 | 13.0 | 0.00 | 0.22 | 0.22 | 55 | 1015.7 |
| 20260831155517 | 32 | 19 | 9.0 | 11.0 | 0.00 | 0.20 | 0.20 | 23 | 1052.5 |
| 20260831155016 | 73 | 248 | 6.0 | 12.0 | 0.00 | 0.22 | 0.22 | 55 | 1015.7 |
| 20260831154537 | 31 | 17 | 10.0 | 11.0 | 0.00 | 0.20 | 0.20 | 23 | 1052.1 |
| 20260831154117 | 73 | 225 | 9.0 | 18.0 | 0.00 | 0.22 | 0.22 | 53 | 1015.7 |
| 20260831153517 | 31 | 15 | 10.0 | 12.0 | 0.00 | 0.20 | 0.20 | 23 | 1051.8 |
| 20260831153017 | 73 | 270 | 8.0 | 13.0 | 0.00 | 0.22 | 0.22 | 54 | 1015.5 |
| 20260831152516 | 31 | 14 | 10.0 | 12.0 | 0.00 | 0.20 | 0.20 | 22 | 1051.5 |
| 20260831152018 | 74 | 225 | 9.0 | 19.0 | 0.00 | 0.22 | 0.22 | 52 | 1015.6 |
| 20260831151517 | 30 | 12 | 10.0 | 12.0 | 0.00 | 0.20 | 0.20 | 22 | 1051.2 |
| 20260831151016 | 74 | 225 | 8.0 | 15.0 | 0.00 | 0.22 | 0.22 | 51 | 1015.6 |
| 20260831150517 | 30 | 11 | 10.0 | 12.0 | 0.00 | 0.20 | 0.20 | 22 | 1051.0 |
| 20260831150016 | 74 | 203 | 8.0 | 20.0 | 0.00 | 0.22 | 0.22 | 52 | 1015.5 |
| 20260831145517 | 30 | 10 | 10.0 | 12.0 | 0.00 | 0.20 | 0.20 | 22 | 1050.7 |
| 20260831145016 | 73 | 225 | 11.0 | 21.0 | 0.00 | 0.22 | 0.22 | 52 | 1015.5 |
| 20260831144517 | 30 | 8 | 10.0 | 12.0 | 0.00 | 0.20 | 0.20 | 21 | 1050.4 |
| 20260831144016 | 74 | 270 | 9.0 | 14.0 | 0.00 | 0.22 | 0.22 | 54 | 1015.5 |
| 20260831143517 | 30 | 7 | 10.0 | 12.0 | 0.00 | 0.20 | 0.20 | 21 | 1050.2 |
| 20260831143016 | 75 | 225 | 9.0 | 14.0 | 0.00 | 0.22 | 0.22 | 54 | 1015.6 |
| 20260831142517 | 30 | 6 | 10.0 | 12.0 | 0.00 | 0.20 | 0.20 | 21 | 1050.0 |
| 20260831142016 | 75 | 225 | 7.0 | 12.0 | 0.00 | 0.22 | 0.22 | 56 | 1015.7 |
| 20260831141537 | 30 | 5 | 10.0 | 12.0 | 0.00 | 0.20 | 0.20 | 21 | 1049.8 |
| 20260831141036 | 74 | 248 | 9.0 | 15.0 | 0.00 | 0.22 | 0.22 | 56 | 1015.8 |
| 20260831140517 | 30 | 4 | 10.0 | 12.0 | 0.00 | 0.20 | 0.20 | 21 | 1049.6 |
| 20260831140016 | 73 | 225 | 7.0 | 11.0 | 0.00 | 0.22 | 0.22 | 59 | 1015.8 |
| 20260831135517 | 30 | 4 | 10.0 | 12.0 | 0.00 | 0.20 | 0.20 | 21 | 1049.5 |
| 20260831135016 | 75 | 203 | 6.0 | 12.0 | 0.00 | 0.22 | 0.22 | 57 | 1015.7 |
| 20260831134537 | 30 | 3 | 10.0 | 12.0 | 0.00 | 0.20 | 0.20 | 20 | 1049.3 |
| 20260831134016 | 74 | 203 | 8.0 | 14.0 | 0.00 | 0.22 | 0.22 | 58 | 1015.8 |
| 20260831133517 | 30 | 2 | 10.0 | 12.0 | 0.00 | 0.20 | 0.20 | 20 | 1049.2 |
| 20260831133016 | 73 | 225 | 7.0 | 15.0 | 0.00 | 0.22 | 0.22 | 59 | 1015.7 |
| 20260831132517 | 31 | 2 | 10.0 | 12.0 | 0.00 | 0.20 | 0.20 | 20 | 1049.1 |
| 20260831132016 | 72 | 225 | 7.0 | 16.0 | 0.00 | 0.22 | 0.22 | 58 | 1015.7 |
| 20260831131517 | 31 | 1 | 10.0 | 12.0 | 0.00 | 0.20 | 0.20 | 20 | 1049.0 |
| 20260831131036 | 73 | 203 | 6.0 | 12.0 | 0.00 | 0.22 | 0.22 | 59 | 1015.9 |
| 20260831130517 | 31 | 1 | 10.0 | 12.0 | 0.00 | 0.20 | 0.20 | 20 | 1048.9 |
| 20260831130016 | 71 | 270 | 5.0 | 11.0 | 0.00 | 0.22 | 0.22 | 60 | 1015.8 |
| 20260831125517 | 31 | 0 | 10.0 | 12.0 | 0.00 | 0.20 | 0.20 | 20 | 1048.9 |
| 20260831125016 | 70 | 225 | 8.0 | 13.0 | 0.00 | 0.22 | 0.22 | 62 | 1015.8 |
| 20260831124517 | 32 | 0 | 10.0 | 12.0 | 0.00 | 0.20 | 0.20 | 20 | 1048.8 |
| 20260831124016 | 71 | 248 | 8.0 | 13.0 | 0.00 | 0.22 | 0.22 | 61 | 1015.9 |
| 20260831123517 | 32 | 0 | 10.0 | 12.0 | 0.00 | 0.20 | 0.20 | 20 | 1048.8 |
| 20260831123016 | 71 | 225 | 6.0 | 13.0 | 0.00 | 0.22 | 0.22 | 61 | 1015.8 |
| 20260831122517 | 33 | 0 | 10.0 | 12.0 | 0.00 | 0.20 | 0.20 | 20 | 1048.8 |
| 20260831122016 | 71 | 248 | 7.0 | 11.0 | 0.00 | 0.22 | 0.22 | 60 | 1015.8 |
| 20260831121517 | 33 | 0 | 10.0 | 12.0 | 0.00 | 0.20 | 0.20 | 20 | 1048.8 |
| 20260831121016 | 71 | 203 | 8.0 | 15.0 | 0.00 | 0.22 | 0.22 | 62 | 1015.8 |
| 20260831120517 | 34 | 0 | 10.0 | 12.0 | 0.00 | 0.20 | 0.20 | 20 | 1048.8 |
| 20260831120016 | 72 | 225 | 10.0 | 18.0 | 0.00 | 0.22 | 0.22 | 61 | 1015.9 |
| 20260831115557 | 34 | 0 | 10.0 | 12.0 | 0.00 | 0.20 | 0.20 | 20 | 1048.9 |
| 20260831115036 | 72 | 248 | 8.0 | 14.0 | 0.00 | 0.22 | 0.22 | 60 | 1015.9 |
| 20260831114516 | 35 | 1 | 10.0 | 12.0 | 0.00 | 0.20 | 0.20 | 20 | 1048.9 |
| 20260831114056 | 71 | 225 | 9.0 | 14.0 | 0.00 | 0.22 | 0.22 | 60 | 1015.8 |
| 20260831113517 | 35 | 1 | 10.0 | 12.0 | 0.00 | 0.20 | 0.20 | 20 | 1049.0 |
| 20260831113016 | 71 | 248 | 8.0 | 14.0 | 0.00 | 0.22 | 0.22 | 64 | 1015.8 |
| 20260831112517 | 36 | 1 | 10.0 | 12.0 | 0.00 | 0.20 | 0.20 | 20 | 1049.1 |
| 20260831112036 | 72 | 225 | 9.0 | 15.0 | 0.00 | 0.22 | 0.22 | 62 | 1016.1 |
| 20260831111517 | 36 | 2 | 10.0 | 12.0 | 0.00 | 0.20 | 0.20 | 20 | 1049.2 |
| 20260831111015 | 71 | 225 | 10.0 | 18.0 | 0.00 | 0.22 | 0.22 | 63 | 1015.8 |
| 20260831110517 | 37 | 3 | 10.0 | 12.0 | 0.00 | 0.20 | 0.20 | 20 | 1049.3 |
| 20260831110016 | 71 | 225 | 9.0 | 15.0 | 0.00 | 0.22 | 0.22 | 63 | 1015.8 |
| 20260831105517 | 38 | 3 | 10.0 | 12.0 | 0.00 | 0.20 | 0.20 | 21 | 1049.4 |
| 20260831105016 | 71 | 225 | 11.0 | 18.0 | 0.00 | 0.22 | 0.22 | 62 | 1015.8 |
| 20260831104517 | 38 | 4 | 10.0 | 12.0 | 0.00 | 0.20 | 0.20 | 21 | 1049.6 |
| 20260831104016 | 71 | 225 | 8.0 | 14.0 | 0.00 | 0.22 | 0.22 | 67 | 1015.8 |
| 20260831103517 | 39 | 5 | 10.0 | 12.0 | 0.00 | 0.20 | 0.20 | 21 | 1049.8 |
| 20260831103018 | 70 | 270 | 7.0 | 16.0 | 0.00 | 0.22 | 0.22 | 68 | 1015.8 |
| 20260831102517 | 40 | 6 | 10.0 | 12.0 | 0.00 | 0.20 | 0.20 | 21 | 1050.0 |
| 20260831102017 | 69 | 225 | 10.0 | 20.0 | 0.00 | 0.22 | 0.22 | 70 | 1015.8 |
| 20260831101517 | 41 | 7 | 10.0 | 12.0 | 0.00 | 0.20 | 0.20 | 21 | 1050.2 |
| 20260831101018 | 69 | 248 | 6.0 | 19.0 | 0.00 | 0.22 | 0.22 | 70 | 1015.9 |
| 20260831100537 | 41 | 8 | 10.0 | 12.0 | 0.00 | 0.20 | 0.20 | 21 | 1050.4 |
| 20260831100018 | 69 | 270 | 8.0 | 16.0 | 0.00 | 0.22 | 0.22 | 72 | 1015.8 |
| 20260831095517 | 42 | 9 | 10.0 | 12.0 | 0.00 | 0.20 | 0.20 | 22 | 1050.6 |
| 20260831095038 | 68 | 270 | 9.0 | 17.0 | 0.00 | 0.22 | 0.22 | 72 | 1016.0 |
| 20260831094537 | 43 | 11 | 10.0 | 12.0 | 0.00 | 0.20 | 0.20 | 22 | 1050.9 |
| 20260831094017 | 68 | 225 | 9.0 | 19.0 | 0.00 | 0.22 | 0.22 | 75 | 1016.0 |
| 20260831093517 | 44 | 12 | 10.0 | 12.0 | 0.00 | 0.20 | 0.20 | 22 | 1051.2 |
| 20260831093037 | 67 | 270 | 6.0 | 14.0 | 0.00 | 0.22 | 0.22 | 78 | 1015.9 |
| 20260831092517 | 45 | 14 | 10.0 | 12.0 | 0.00 | 0.20 | 0.20 | 22 | 1051.5 |
| 20260831092018 | 67 | 270 | 7.0 | 15.0 | 0.00 | 0.22 | 0.22 | 76 | 1015.9 |
| 20260831091517 | 46 | 15 | 10.0 | 12.0 | 0.00 | 0.20 | 0.20 | 23 | 1051.8 |
| 20260831091036 | 68 | 293 | 6.0 | 12.0 | 0.00 | 0.22 | 0.22 | 79 | 1016.0 |
| 20260831090517 | 46 | 17 | 10.0 | 11.0 | 0.00 | 0.20 | 0.20 | 23 | 1052.1 |
| 20260831090038 | 67 | 248 | 8.0 | 15.0 | 0.00 | 0.22 | 0.22 | 82 | 1015.9 |
| 20260831085517 | 47 | 18 | 9.0 | 11.0 | 0.00 | 0.20 | 0.20 | 23 | 1052.4 |
| 20260831085017 | 66 | 270 | 7.0 | 13.0 | 0.00 | 0.22 | 0.22 | 86 | 1015.7 |
| 20260831084517 | 48 | 20 | 9.0 | 11.0 | 0.00 | 0.20 | 0.20 | 23 | 1052.8 |
| 20260831084038 | 65 | 270 | 11.0 | 18.0 | 0.00 | 0.22 | 0.22 | 88 | 1015.8 |
| 20260831083517 | 49 | 22 | 9.0 | 11.0 | 0.00 | 0.20 | 0.20 | 24 | 1053.1 |
| 20260831083038 | 64 | 248 | 8.0 | 17.0 | 0.00 | 0.22 | 0.22 | 91 | 1015.7 |
| 20260831082517 | 50 | 24 | 9.0 | 11.0 | 0.00 | 0.20 | 0.20 | 24 | 1053.5 |
| 20260831082037 | 64 | 270 | 6.0 | 16.0 | 0.00 | 0.22 | 0.22 | 92 | 1015.6 |
| 20260831081517 | 51 | 26 | 9.0 | 11.0 | 0.00 | 0.20 | 0.20 | 24 | 1053.9 |
| 20260831081017 | 63 | 248 | 7.0 | 13.0 | 0.00 | 0.22 | 0.22 | 93 | 1015.5 |
| 20260831080517 | 52 | 28 | 9.0 | 11.0 | 0.00 | 0.20 | 0.20 | 25 | 1054.3 |
| 20260831080018 | 62 | 248 | 6.0 | 13.0 | 0.00 | 0.22 | 0.22 | 94 | 1015.4 |
| 20260831075517 | 53 | 30 | 9.0 | 11.0 | 0.00 | 0.20 | 0.20 | 25 | 1054.7 |
| 20260831075017 | 61 | 248 | 7.0 | 16.0 | 0.00 | 0.22 | 0.22 | 94 | 1015.3 |
| 20260831074517 | 53 | 32 | 9.0 | 11.0 | 0.00 | 0.20 | 0.20 | 25 | 1055.2 |
| 20260831074018 | 61 | 270 | 8.0 | 17.0 | 0.00 | 0.22 | 0.22 | 94 | 1015.4 |
| 20260831073517 | 54 | 35 | 9.0 | 11.0 | 0.00 | 0.20 | 0.20 | 26 | 1055.6 |
| 20260831073018 | 61 | 270 | 6.0 | 14.0 | 0.00 | 0.22 | 0.22 | 94 | 1015.2 |
| 20260831072516 | 55 | 37 | 9.0 | 11.0 | 0.00 | 0.20 | 0.20 | 26 | 1056.1 |
| 20260831072017 | 61 | 248 | 9.0 | 15.0 | 0.00 | 0.22 | 0.22 | 94 | 1015.1 |
| 20260831071517 | 56 | 39 | 9.0 | 11.0 | 0.00 | 0.20 | 0.20 | 27 | 1056.6 |
| 20260831071017 | 61 | 225 | 7.0 | 14.0 | 0.00 | 0.22 | 0.22 | 94 | 1015.0 |
| 20260831070517 | 57 | 42 | 9.0 | 11.0 | 0.00 | 0.20 | 0.20 | 27 | 1057.1 |
| 20260831070017 | 61 | 225 | 6.0 | 12.0 | 0.00 | 0.22 | 0.22 | 94 | 1014.9 |
| 20260831065517 | 58 | 44 | 9.0 | 11.0 | 0.00 | 0.20 | 0.20 | 27 | 1057.6 |
| 20260831065017 | 61 | 225 | 6.0 | 11.0 | 0.00 | 0.22 | 0.22 | 94 | 1015.0 |
| 20260831064517 | 58 | 47 | 9.0 | 10.0 | 0.00 | 0.20 | 0.20 | 28 | 1058.1 |
| 20260831064017 | 61 | 225 | 5.0 | 9.0 | 0.00 | 0.22 | 0.22 | 94 | 1014.9 |
| 20260831063517 | 59 | 50 | 9.0 | 10.0 | 0.00 | 0.20 | 0.20 | 28 | 1058.6 |
| 20260831063017 | 60 | 203 | 4.0 | 9.0 | 0.00 | 0.22 | 0.22 | 94 | 1014.8 |
| 20260831062517 | 60 | 52 | 9.0 | 10.0 | 0.00 | 0.20 | 0.20 | 29 | 1059.2 |
| 20260831062037 | 60 | 203 | 5.0 | 8.0 | 0.00 | 0.22 | 0.22 | 94 | 1014.8 |
| 20260831061517 | 61 | 55 | 8.0 | 10.0 | 0.00 | 0.20 | 0.20 | 29 | 1059.7 |
| 20260831061017 | 60 | 180 | 3.0 | 5.0 | 0.00 | 0.22 | 0.22 | 94 | 1014.8 |
| 20260831060517 | 61 | 58 | 8.0 | 10.0 | 0.00 | 0.20 | 0.20 | 30 | 1060.3 |
| 20260831060017 | 59 | 158 | 3.0 | 5.0 | 0.00 | 0.22 | 0.22 | 94 | 1014.6 |
| 20260831055517 | 62 | 61 | 8.0 | 10.0 | 0.00 | 0.20 | 0.20 | 30 | 1060.9 |
| 20260831055017 | 59 | 158 | 4.0 | 7.0 | 0.00 | 0.22 | 0.22 | 94 | 1014.5 |
| 20260831054517 | 63 | 64 | 8.0 | 10.0 | 0.00 | 0.20 | 0.20 | 31 | 1061.4 |
| 20260831054017 | 59 | 113 | 2.0 | 3.0 | 0.00 | 0.22 | 0.22 | 94 | 1014.4 |
| 20260831053517 | 63 | 67 | 8.0 | 10.0 | 0.00 | 0.20 | 0.20 | 31 | 1062.0 |
| 20260831053037 | 59 | 158 | 2.0 | 4.0 | 0.01 | 0.22 | 0.22 | 94 | 1014.6 |
| 20260831052517 | 64 | 70 | 8.0 | 10.0 | 0.00 | 0.20 | 0.20 | 32 | 1062.7 |
| 20260831052037 | 59 | 225 | 2.0 | 3.0 | 0.01 | 0.22 | 0.22 | 94 | 1014.7 |
| 20260831051517 | 65 | 73 | 8.0 | 10.0 | 0.00 | 0.20 | 0.20 | 32 | 1063.3 |
| 20260831051017 | 59 | 158 | 1.0 | 3.0 | 0.01 | 0.22 | 0.22 | 94 | 1014.6 |
| 20260831050517 | 65 | 76 | 8.0 | 9.0 | 0.00 | 0.20 | 0.20 | 33 | 1063.9 |
| 20260831050017 | 59 | 158 | 1.0 | 4.0 | 0.02 | 0.22 | 0.22 | 94 | 1014.4 |
| 20260831045517 | 66 | 80 | 8.0 | 9.0 | 0.00 | 0.20 | 0.20 | 33 | 1064.5 |
| 20260831045017 | 59 | 158 | 1.0 | 2.0 | 0.06 | 0.22 | 0.22 | 94 | 1014.4 |
| 20260831044517 | 66 | 83 | 8.0 | 9.0 | 0.00 | 0.20 | 0.20 | 34 | 1065.2 |
| 20260831044017 | 59 | 113 | 1.0 | 4.0 | 0.06 | 0.22 | 0.22 | 94 | 1014.3 |
| 20260831043537 | 67 | 86 | 8.0 | 9.0 | 0.00 | 0.20 | 0.20 | 34 | 1065.9 |
| 20260831043017 | 59 | 113 | 1.0 | 2.0 | 0.21 | 0.21 | 0.21 | 93 | 1014.3 |
| 20260831042517 | 67 | 90 | 8.0 | 9.0 | 0.00 | 0.20 | 0.20 | 35 | 1066.5 |
| 20260831042017 | 59 | 158 | 2.0 | 6.0 | 0.21 | 0.21 | 0.21 | 93 | 1014.4 |
| 20260831041537 | 68 | 93 | 7.0 | 9.0 | 0.00 | 0.20 | 0.20 | 36 | 1067.2 |
| 20260831041017 | 59 | 135 | 2.0 | 5.0 | 0.21 | 0.21 | 0.21 | 93 | 1014.6 |
| 20260831040517 | 68 | 97 | 7.0 | 9.0 | 0.00 | 0.20 | 0.20 | 36 | 1067.9 |
| 20260831040017 | 59 | 113 | 3.0 | 6.0 | 0.20 | 0.20 | 0.20 | 93 | 1014.5 |
| 20260831035517 | 68 | 100 | 7.0 | 9.0 | 0.00 | 0.20 | 0.20 | 37 | 1068.6 |
| 20260831035017 | 58 | 158 | 2.0 | 5.0 | 0.17 | 0.17 | 0.17 | 93 | 1014.7 |
| 20260831034517 | 69 | 104 | 7.0 | 9.0 | 0.00 | 0.20 | 0.20 | 37 | 1069.3 |
| 20260831034037 | 58 | 203 | 6.0 | 10.0 | 0.16 | 0.16 | 0.16 | 93 | 1015.1 |
| 20260831033517 | 69 | 107 | 7.0 | 8.0 | 0.00 | 0.20 | 0.20 | 38 | 1070.0 |
| 20260831033017 | 56 | 180 | 6.0 | 16.0 | 0.00 | 0.00 | 0.00 | 92 | 1013.7 |
| 20260831032517 | 69 | 111 | 7.0 | 8.0 | 0.00 | 0.20 | 0.20 | 38 | 1070.7 |
| 20260831032016 | 56 | 0.0 | 0.0 | 0.00 | 0.00 | 0.00 | 92 | 1012.9 | |
| 20260831031517 | 70 | 114 | 7.0 | 8.0 | 0.00 | 0.20 | 0.20 | 39 | 1071.4 |
| 20260831031016 | 56 | 0.0 | 0.0 | 0.00 | 0.00 | 0.00 | 92 | 1012.9 | |
| 20260831030517 | 70 | 118 | 7.0 | 8.0 | 0.00 | 0.20 | 0.20 | 40 | 1072.1 |
| 20260831030017 | 56 | 0.0 | 0.0 | 0.00 | 0.00 | 0.00 | 92 | 1012.8 | |
| 20260831025517 | 70 | 122 | 7.0 | 8.0 | 0.00 | 0.20 | 0.20 | 40 | 1072.9 |
| 20260831025017 | 55 | 0.0 | 0.0 | 0.00 | 0.00 | 0.00 | 92 | 1013.1 | |
| 20260831024517 | 70 | 126 | 7.0 | 8.0 | 0.00 | 0.20 | 0.20 | 41 | 1073.6 |
| 20260831024037 | 55 | 0.0 | 0.0 | 0.00 | 0.00 | 0.00 | 92 | 1013.4 | |
| 20260831023517 | 70 | 129 | 6.0 | 8.0 | 0.00 | 0.20 | 0.20 | 42 | 1074.4 |
| 20260831023016 | 55 | 0.0 | 0.0 | 0.00 | 0.00 | 0.00 | 92 | 1013.4 | |
| 20260831022617 | 70 | 133 | 6.0 | 8.0 | 0.00 | 0.20 | 0.20 | 42 | 1075.1 |
| 20260831022017 | 55 | 0.0 | 0.0 | 0.00 | 0.00 | 0.00 | 92 | 1013.7 | |
| 20260831021517 | 70 | 137 | 6.0 | 7.0 | 0.00 | 0.20 | 0.20 | 43 | 1075.9 |
| 20260831021037 | 55 | 0.0 | 0.0 | 0.00 | 0.00 | 0.00 | 92 | 1013.5 | |
| 20260831020516 | 70 | 141 | 6.0 | 7.0 | 0.00 | 0.20 | 0.20 | 43 | 1076.6 |
| 20260831020017 | 55 | 0.0 | 0.0 | 0.00 | 0.00 | 0.00 | 92 | 1013.5 | |
| 20260831015517 | 70 | 145 | 6.0 | 7.0 | 0.00 | 0.20 | 0.20 | 44 | 1077.4 |
| 20260831015016 | 54 | 0.0 | 0.0 | 0.00 | 0.00 | 0.00 | 91 | 1013.7 | |
| 20260831014517 | 70 | 148 | 6.0 | 7.0 | 0.01 | 0.20 | 0.20 | 45 | 1078.1 |
| 20260831014037 | 54 | 0.0 | 0.0 | 0.00 | 0.00 | 0.00 | 91 | 1013.7 | |
| 20260831013517 | 70 | 152 | 6.0 | 7.0 | 0.02 | 0.20 | 0.20 | 45 | 1078.9 |
| 20260831013016 | 54 | 0.0 | 0.0 | 0.00 | 0.00 | 0.00 | 91 | 1014.1 | |
| 20260831012517 | 69 | 156 | 6.0 | 7.0 | 0.03 | 0.20 | 0.20 | 46 | 1079.7 |
| 20260831012036 | 55 | 0.0 | 0.0 | 0.00 | 0.00 | 0.00 | 91 | 1014.1 | |
| 20260831011517 | 69 | 160 | 6.0 | 7.0 | 0.05 | 0.20 | 0.20 | 47 | 1080.4 |
| 20260831011016 | 55 | 0.0 | 0.0 | 0.00 | 0.00 | 0.00 | 91 | 1014.0 | |
| 20260831010517 | 69 | 164 | 5.0 | 7.0 | 0.06 | 0.20 | 0.20 | 47 | 1081.2 |
| 20260831010016 | 55 | 0.0 | 0.0 | 0.00 | 0.00 | 0.00 | 91 | 1014.4 | |
| 20260831005517 | 69 | 168 | 5.0 | 6.0 | 0.07 | 0.20 | 0.20 | 48 | 1082.0 |
| 20260831005016 | 55 | 0.0 | 0.0 | 0.00 | 0.00 | 0.00 | 91 | 1014.4 | |
| 20260831004517 | 68 | 172 | 5.0 | 6.0 | 0.07 | 0.20 | 0.19 | 49 | 1082.8 |
| 20260831004016 | 55 | 0.0 | 0.0 | 0.00 | 0.00 | 0.00 | 90 | 1014.6 | |
| 20260831003517 | 68 | 176 | 5.0 | 6.0 | 0.07 | 0.20 | 0.18 | 49 | 1083.5 |
| 20260831003016 | 55 | 0.0 | 0.0 | 0.00 | 0.00 | 0.00 | 90 | 1014.5 | |
| 20260831002537 | 67 | 180 | 5.0 | 6.0 | 0.07 | 0.20 | 0.17 | 50 | 1084.3 |
| 20260831002016 | 56 | 0.0 | 0.0 | 0.00 | 0.00 | 0.00 | 90 | 1014.7 | |
| 20260831001517 | 67 | 184 | 5.0 | 6.0 | 0.06 | 0.20 | 0.15 | 51 | 1085.1 |
| 20260831001016 | 56 | 0.0 | 0.0 | 0.00 | 0.00 | 0.00 | 90 | 1014.8 | |
| 20260831000517 | 66 | 187 | 5.0 | 6.0 | 0.06 | 0.20 | 0.14 | 51 | 1085.9 |
| 20260831000036 | 56 | 0.0 | 0.0 | 0.00 | 0.00 | 0.00 | 90 | 1015.0 | |
| 20260830235537 | 66 | 191 | 5.0 | 6.0 | 0.06 | 0.20 | 0.13 | 52 | 1086.6 |
| 20260830235036 | 56 | 0.0 | 0.0 | 0.00 | 0.00 | 0.00 | 90 | 1014.9 | |
| 20260830234517 | 65 | 195 | 5.0 | 6.0 | 0.07 | 0.20 | 0.12 | 53 | 1087.4 |
| 20260830234016 | 56 | 0.0 | 0.0 | 0.00 | 0.00 | 0.00 | 89 | 1014.8 | |
| 20260830233537 | 65 | 199 | 4.0 | 5.0 | 0.07 | 0.20 | 0.11 | 53 | 1088.2 |
| 20260830233016 | 57 | 0.0 | 0.0 | 0.00 | 0.00 | 0.00 | 89 | 1014.8 | |
| 20260830232517 | 64 | 203 | 4.0 | 5.0 | 0.07 | 0.20 | 0.10 | 54 | 1089.0 |
| 20260830232016 | 57 | 0.0 | 0.0 | 0.00 | 0.00 | 0.00 | 89 | 1015.0 | |
| 20260830231517 | 64 | 207 | 4.0 | 5.0 | 0.07 | 0.20 | 0.09 | 55 | 1089.7 |
| 20260830231016 | 57 | 0.0 | 0.0 | 0.00 | 0.00 | 0.00 | 89 | 1015.1 | |
| 20260830230517 | 63 | 211 | 4.0 | 5.0 | 0.07 | 0.20 | 0.08 | 55 | 1090.5 |
| 20260830230016 | 57 | 0.0 | 0.0 | 0.00 | 0.00 | 0.00 | 88 | 1015.3 |